createdAt,value
2023-05-23T00:01:55.446Z,101005.97
2023-05-23T00:04:27.322Z,101003.31
2023-05-23T00:06:54.624Z,101007.78
2023-05-23T00:09:21.924Z,100926.88
2023-05-23T00:11:48.986Z,100999.16
2023-05-23T00:14:16.316Z,100999.63
2023-05-23T00:16:45.183Z,100997.75
2023-05-23T00:19:15.359Z,100991.56
2023-05-23T00:21:44.269Z,100999.72
2023-05-23T00:24:11.443Z,100935.84
2023-05-23T00:26:39.017Z,100974.09
2023-05-23T00:29:06.605Z,101017.31
2023-05-23T00:31:33.754Z,100999.81
2023-05-23T00:34:00.946Z,100995.66
2023-05-23T00:36:28.114Z,100995.38
2023-05-23T00:38:55.849Z,100990.63
2023-05-23T00:41:23.124Z,100981.31
2023-05-23T00:43:50.381Z,100978.50
2023-05-23T00:46:17.643Z,100950.75
2023-05-23T00:48:45.200Z,100984.53
2023-05-23T00:51:12.280Z,100917.56
2023-05-23T00:53:39.465Z,100980.41
2023-05-23T00:56:07.049Z,100989.84
2023-05-23T00:58:35.237Z,100941.88
2023-05-23T01:01:02.871Z,100993.41
2023-05-23T01:03:30.518Z,101001.56
2023-05-23T01:05:57.950Z,101008.38
2023-05-23T01:08:25.182Z,100964.31
2023-05-23T01:11:11.224Z,101022.50
2023-05-23T01:13:47.825Z,101010.47
2023-05-23T01:16:29.222Z,101010.69
2023-05-23T01:19:17.736Z,101004.94
2023-05-23T01:21:53.197Z,101008.34
2023-05-23T01:24:54.861Z,101014.25
2023-05-23T01:27:54.423Z,101012.63
2023-05-23T01:30:23.471Z,101001.38
2023-05-23T01:32:53.781Z,101005.78
2023-05-23T01:35:26.328Z,101003.09
2023-05-23T01:37:58.059Z,100997.22
2023-05-23T01:40:26.159Z,101005.47
2023-05-23T01:42:57.481Z,100959.69
2023-05-23T01:45:26.940Z,100975.97
2023-05-23T01:47:55.203Z,101002.03
2023-05-23T01:50:23.828Z,101007.28
2023-05-23T01:52:51.327Z,101011.22
2023-05-23T01:55:22.861Z,100947.06
2023-05-23T01:58:00.569Z,100959.91
2023-05-23T02:00:27.977Z,100999.50
2023-05-23T02:02:55.376Z,101002.03
2023-05-23T02:05:22.754Z,100999.28
2023-05-23T02:07:49.730Z,100995.47
2023-05-23T02:10:18.073Z,101007.00
2023-05-23T02:12:45.428Z,100996.31
2023-05-23T02:15:12.527Z,101010.94
2023-05-23T02:17:39.701Z,100984.56
2023-05-23T02:20:07.799Z,100942.34
2023-05-23T02:22:36.179Z,101009.56
2023-05-23T02:25:03.258Z,100990.81
2023-05-23T02:27:30.421Z,101018.00
2023-05-23T02:29:57.612Z,101017.09
2023-05-23T02:32:24.942Z,100967.59
2023-05-23T02:34:52.937Z,101017.44
2023-05-23T02:37:21.234Z,101015.28
2023-05-23T02:39:48.601Z,101023.41
2023-05-23T02:42:15.692Z,101031.84
2023-05-23T02:44:42.916Z,101014.41
2023-05-23T02:47:10.745Z,100944.38
2023-05-23T02:49:37.899Z,100985.34
2023-05-23T02:52:06.898Z,101013.69
2023-05-23T02:54:34.037Z,101015.72
2023-05-23T02:57:01.552Z,101014.25
2023-05-23T02:59:29.474Z,100894.00
2023-05-23T03:01:56.730Z,100954.03
2023-05-23T03:04:24.172Z,100996.75
2023-05-23T03:06:54.379Z,100999.97
2023-05-23T03:09:21.898Z,101019.69
2023-05-23T03:11:49.235Z,100861.97
2023-05-23T03:14:16.717Z,101001.94
2023-05-23T03:16:43.929Z,100957.13
2023-05-23T03:19:11.238Z,101012.13
2023-05-23T03:21:39.027Z,100984.72
2023-05-23T03:24:06.448Z,101003.00
2023-05-23T03:26:33.755Z,100908.38
2023-05-23T03:29:00.864Z,101039.16
2023-05-23T03:31:28.034Z,100988.16
2023-05-23T03:33:55.096Z,101016.44
2023-05-23T03:36:26.102Z,101015.00
2023-05-23T03:38:53.452Z,101019.13
2023-05-23T03:41:21.577Z,100998.50
2023-05-23T03:43:48.722Z,101029.47
2023-05-23T03:46:16.263Z,101032.97
2023-05-23T03:48:44.013Z,101025.72
2023-05-23T03:51:13.535Z,101029.38
2023-05-23T03:53:41.465Z,100988.38
2023-05-23T03:56:08.599Z,101031.03
2023-05-23T03:58:35.701Z,100995.63
2023-05-23T04:01:09.395Z,101031.41
2023-05-23T04:03:36.956Z,101013.75
2023-05-23T04:06:04.763Z,101028.25
2023-05-23T04:08:34.104Z,100987.50
2023-05-23T04:11:02.093Z,101022.91
2023-05-23T04:13:33.363Z,101029.06
2023-05-23T04:16:02.339Z,101010.34
2023-05-23T04:18:30.481Z,100959.09
2023-05-23T04:20:59.562Z,100985.50
2023-05-23T04:23:26.791Z,101003.94
2023-05-23T04:25:54.811Z,101030.50
2023-05-23T04:28:27.859Z,101038.91
2023-05-23T04:30:56.535Z,101023.69
2023-05-23T04:33:28.471Z,101040.28
2023-05-23T04:35:56.380Z,101038.88
2023-05-23T04:38:25.237Z,101048.16
2023-05-23T04:40:54.252Z,101041.47
2023-05-23T04:43:43.087Z,101036.56
2023-05-23T04:46:27.449Z,101028.22
2023-05-23T04:49:15.143Z,101033.53
2023-05-23T04:51:43.154Z,101040.28
2023-05-23T04:54:20.034Z,101023.50
2023-05-23T04:56:47.541Z,101032.94
2023-05-23T04:59:18.033Z,101054.75
2023-05-23T05:01:45.326Z,101054.84
2023-05-23T05:04:14.205Z,101060.38
2023-05-23T05:06:42.449Z,101016.13
2023-05-23T05:09:10.286Z,101056.94
2023-05-23T05:11:37.658Z,100963.66
2023-05-23T05:14:04.750Z,101056.88
2023-05-23T05:16:32.006Z,101006.84
2023-05-23T05:19:00.730Z,101053.31
2023-05-23T05:21:27.953Z,101027.97
2023-05-23T05:23:55.281Z,101020.97
2023-05-23T05:26:23.388Z,101053.22
2023-05-23T05:28:51.737Z,101029.06
2023-05-23T05:31:19.869Z,101056.34
2023-05-23T05:33:47.384Z,101059.28
2023-05-23T05:36:16.165Z,101042.53
2023-05-23T05:38:44.124Z,101062.72
2023-05-23T05:41:11.342Z,101037.63
2023-05-23T05:43:47.334Z,101052.84
2023-05-23T05:46:14.934Z,101051.28
2023-05-23T05:48:42.617Z,101055.22
2023-05-23T05:51:12.500Z,101065.94
2023-05-23T05:53:43.165Z,101049.44
2023-05-23T05:56:10.521Z,101058.13
2023-05-23T05:58:39.202Z,101014.91
2023-05-23T06:01:08.922Z,101076.16
2023-05-23T06:03:36.426Z,101064.91
2023-05-23T06:06:03.877Z,101013.31
2023-05-23T06:08:31.092Z,101045.72
2023-05-23T06:10:58.230Z,101058.84
2023-05-23T06:13:26.764Z,101049.94
2023-05-23T06:15:54.805Z,101011.19
2023-05-23T06:18:23.089Z,101031.53
2023-05-23T06:20:51.495Z,101017.94
2023-05-23T06:23:20.684Z,101045.94
2023-05-23T06:25:48.324Z,101048.22
2023-05-23T06:28:15.558Z,101043.84
2023-05-23T06:30:42.898Z,101011.53
2023-05-23T06:33:10.360Z,101012.78
2023-05-23T06:35:37.621Z,100938.81
2023-05-23T06:38:04.707Z,101010.50
2023-05-23T06:40:31.925Z,101047.00
2023-05-23T06:42:59.380Z,101053.13
2023-05-23T06:45:49.111Z,101042.06
2023-05-23T06:48:16.533Z,101053.66
2023-05-23T06:50:45.948Z,101054.59
2023-05-23T06:53:15.640Z,101013.13
2023-05-23T06:55:43.918Z,101054.94
2023-05-23T06:58:14.889Z,101050.09
2023-05-23T07:00:42.215Z,100996.75
2023-05-23T07:03:18.224Z,101038.88
2023-05-23T07:05:45.594Z,100986.25
2023-05-23T07:08:13.233Z,101038.00
2023-05-23T07:10:47.075Z,101012.88
2023-05-23T07:13:26.307Z,101037.66
2023-05-23T07:15:53.576Z,101000.19
2023-05-23T07:18:20.887Z,101030.78
2023-05-23T07:20:48.441Z,100997.69
2023-05-23T07:23:17.929Z,101021.78
2023-05-23T07:26:01.238Z,101015.22
2023-05-23T07:28:39.508Z,101016.97
2023-05-23T07:31:09.462Z,100937.47
2023-05-23T07:33:37.978Z,101006.19
2023-05-23T07:36:06.568Z,100956.84
2023-05-23T07:38:33.767Z,100996.22
2023-05-23T07:41:10.870Z,100992.09
2023-05-23T07:43:39.948Z,100993.56
2023-05-23T07:46:07.179Z,100973.38
2023-05-23T07:48:34.391Z,101002.84
2023-05-23T07:51:01.592Z,100924.97
2023-05-23T07:53:29.444Z,100940.91
2023-05-23T07:55:57.956Z,100936.78
2023-05-23T07:58:28.131Z,101000.16
2023-05-23T08:00:55.373Z,101004.81
2023-05-23T08:03:42.535Z,100988.03
2023-05-23T08:06:15.576Z,100892.22
2023-05-23T08:08:43.850Z,101001.53
2023-05-23T08:11:10.989Z,100997.09
2023-05-23T08:13:44.342Z,100988.38
2023-05-23T08:16:30.327Z,100984.13
2023-05-23T08:18:57.833Z,100978.69
2023-05-23T08:21:25.020Z,101003.69
2023-05-23T08:23:52.601Z,100979.13
2023-05-23T08:26:20.077Z,101004.13
2023-05-23T08:28:48.437Z,100968.75
2023-05-23T08:31:15.744Z,100974.09
2023-05-23T08:33:44.761Z,100979.91
2023-05-23T08:36:12.645Z,100925.00
2023-05-23T08:38:40.146Z,100990.38
2023-05-23T08:41:27.592Z,100994.03
2023-05-23T08:44:01.383Z,100980.31
2023-05-23T08:46:35.357Z,100973.50
2023-05-23T08:49:02.992Z,100980.72
2023-05-23T08:51:33.068Z,100962.09
2023-05-23T08:54:06.299Z,100982.50
2023-05-23T08:56:35.200Z,100983.69
2023-05-23T08:59:03.341Z,100974.84
2023-05-23T09:01:32.331Z,100930.44
2023-05-23T09:04:05.216Z,100973.56
2023-05-23T09:06:51.188Z,100922.03
2023-05-23T09:09:18.870Z,100966.22
2023-05-23T09:11:47.304Z,100942.59
2023-05-23T09:14:15.598Z,100946.72
2023-05-23T09:16:47.235Z,100953.06
2023-05-23T09:19:16.476Z,100964.06
2023-05-23T09:21:50.859Z,100961.25
2023-05-23T09:24:34.857Z,100941.88
2023-05-23T09:27:03.204Z,100905.44
2023-05-23T09:29:30.985Z,100872.44
2023-05-23T09:32:10.504Z,100923.38
2023-05-23T09:35:03.811Z,100949.47
2023-05-23T09:37:31.514Z,100958.63
2023-05-23T09:40:06.656Z,100946.63
2023-05-23T09:42:34.567Z,100937.72
2023-05-23T09:45:04.340Z,100942.81
2023-05-23T09:47:32.556Z,100947.56
2023-05-23T09:49:59.851Z,100938.97
2023-05-23T09:52:27.692Z,100918.13
2023-05-23T09:54:55.347Z,100923.09
2023-05-23T09:57:23.581Z,100925.69
2023-05-23T09:59:54.496Z,100928.38
2023-05-23T10:02:54.967Z,100924.34
2023-05-23T10:05:40.959Z,100922.78
2023-05-23T10:08:12.190Z,100920.06
2023-05-23T10:11:14.432Z,100915.25
2023-05-23T10:13:49.730Z,100890.34
2023-05-23T10:16:40.393Z,100912.47
2023-05-23T10:19:17.460Z,100789.38
2023-05-23T10:21:59.637Z,100860.28
2023-05-23T10:24:27.755Z,100899.88
2023-05-23T10:26:58.315Z,100874.84
2023-05-23T10:29:25.968Z,100886.44
2023-05-23T10:31:54.090Z,100854.13
2023-05-23T10:34:35.132Z,100882.03
2023-05-23T10:37:07.536Z,100860.66
2023-05-23T10:39:47.012Z,100873.91
2023-05-23T10:42:24.796Z,100870.22
2023-05-23T10:44:51.928Z,100819.41
2023-05-23T10:47:31.449Z,100798.00
2023-05-23T10:49:58.671Z,100850.00
2023-05-23T10:52:29.136Z,100871.97
2023-05-23T10:54:56.533Z,100868.69
2023-05-23T10:57:29.588Z,100823.59
2023-05-23T10:59:57.212Z,100856.31
2023-05-23T11:02:28.951Z,100860.78
2023-05-23T11:05:22.931Z,100855.53
2023-05-23T11:08:09.561Z,100857.69
2023-05-23T11:10:55.072Z,100860.03
2023-05-23T11:13:23.440Z,100864.50
2023-05-23T11:15:50.733Z,100840.75
2023-05-23T11:18:28.039Z,100846.72
2023-05-23T11:20:55.708Z,100856.47
2023-05-23T11:23:24.314Z,100852.22
2023-05-23T11:25:53.614Z,100857.69
2023-05-23T11:28:21.297Z,100834.34
2023-05-23T11:30:49.897Z,100843.66
2023-05-23T11:33:18.530Z,100843.59
2023-05-23T11:35:46.675Z,100851.75
2023-05-23T11:38:18.330Z,100810.13
2023-05-23T11:40:47.719Z,100838.47
2023-05-23T11:43:19.961Z,100829.16
2023-05-23T11:45:47.376Z,100828.16
2023-05-23T11:48:16.761Z,100831.84
2023-05-23T11:50:52.374Z,100834.97
2023-05-23T11:53:22.053Z,100782.63
2023-05-23T11:55:57.857Z,100824.38
2023-05-23T11:58:34.386Z,100824.25
2023-05-23T12:01:09.602Z,100831.97
2023-05-23T12:03:54.047Z,100826.25
2023-05-23T12:06:23.679Z,100816.06
2023-05-23T12:08:52.818Z,100740.50
2023-05-23T12:11:20.162Z,100722.00
2023-05-23T12:13:47.404Z,100775.69
2023-05-23T12:16:17.510Z,100802.03
2023-05-23T12:18:44.794Z,100807.28
2023-05-23T12:21:12.546Z,100753.78
2023-05-23T12:23:40.595Z,100799.63
2023-05-23T12:26:08.156Z,100804.25
2023-05-23T12:28:41.196Z,100785.72
2023-05-23T12:31:21.407Z,100774.84
2023-05-23T12:33:52.599Z,100781.94
2023-05-23T12:36:26.377Z,100783.78
2023-05-23T12:38:53.959Z,100788.56
2023-05-23T12:41:22.219Z,100763.69
2023-05-23T12:43:53.701Z,100761.38
2023-05-23T12:46:22.184Z,100777.16
2023-05-23T12:48:49.885Z,100780.16
2023-05-23T12:51:17.233Z,100765.91
2023-05-23T12:53:44.469Z,100731.84
2023-05-23T12:56:11.773Z,100760.97
2023-05-23T12:58:38.907Z,100770.47
2023-05-23T13:01:06.307Z,100765.09
2023-05-23T13:03:33.588Z,100745.41
2023-05-23T13:06:00.976Z,100647.75
2023-05-23T13:08:28.180Z,100643.03
2023-05-23T13:10:55.580Z,100743.56
2023-05-23T13:13:23.349Z,100746.69
2023-05-23T13:15:51.131Z,100746.72
2023-05-23T13:18:18.977Z,100751.06
2023-05-23T13:20:46.762Z,100756.84
2023-05-23T13:23:14.201Z,100646.88
2023-05-23T13:25:41.566Z,100692.13
2023-05-23T13:28:08.956Z,100713.53
2023-05-23T13:30:36.375Z,100717.00
2023-05-23T13:33:03.733Z,100728.28
2023-05-23T13:35:30.974Z,100740.88
2023-05-23T13:37:58.134Z,100697.19
2023-05-23T13:40:25.412Z,100737.22
2023-05-23T13:42:52.804Z,100707.69
2023-05-23T13:45:22.707Z,100731.09
2023-05-23T13:47:50.182Z,100692.25
2023-05-23T13:50:17.916Z,100704.03
2023-05-23T13:52:49.086Z,100724.16
2023-05-23T13:55:18.800Z,100722.94
2023-05-23T13:57:46.319Z,100734.44
2023-05-23T14:00:14.565Z,100728.50
2023-05-23T14:02:41.844Z,100722.78
2023-05-23T14:05:09.641Z,100730.97
2023-05-23T14:07:37.066Z,100717.75
2023-05-23T14:10:05.304Z,100716.97
2023-05-23T14:12:32.743Z,100704.41
2023-05-23T14:14:59.995Z,100688.53
2023-05-23T14:17:27.587Z,100723.16
2023-05-23T14:19:54.846Z,100714.94
2023-05-23T14:22:22.096Z,100710.13
2023-05-23T14:24:49.385Z,100646.84
2023-05-23T14:27:16.527Z,100703.50
2023-05-23T14:29:46.669Z,100629.44
2023-05-23T14:32:14.018Z,100704.81
2023-05-23T14:34:41.678Z,100714.41
2023-05-23T14:37:08.790Z,100718.22
2023-05-23T14:39:36.297Z,100675.56
2023-05-23T14:42:03.918Z,100622.53
2023-05-23T14:44:31.166Z,100667.22
2023-05-23T14:46:58.619Z,100723.94
2023-05-23T14:49:25.758Z,100721.97
2023-05-23T14:51:52.884Z,100721.38
2023-05-23T14:54:20.079Z,100725.88
2023-05-23T14:56:47.381Z,100729.50
2023-05-23T14:59:15.246Z,100704.34
2023-05-23T15:01:42.621Z,100719.97
2023-05-23T15:04:10.400Z,100726.22
2023-05-23T15:06:39.663Z,100750.34
2023-05-23T15:09:07.727Z,100714.63
2023-05-23T15:11:39.037Z,100713.28
2023-05-23T15:14:06.504Z,100714.81
2023-05-23T15:16:35.360Z,100694.47
2023-05-23T15:19:02.721Z,100708.97
2023-05-23T15:21:29.905Z,100719.00
2023-05-23T15:23:57.917Z,100746.34
2023-05-23T15:26:25.643Z,100747.09
2023-05-23T15:28:52.792Z,100674.59
2023-05-23T15:31:20.171Z,100739.75
2023-05-23T15:33:50.522Z,100690.91
2023-05-23T15:36:17.581Z,100750.31
2023-05-23T15:38:44.978Z,100741.91
2023-05-23T15:41:12.267Z,100732.66
2023-05-23T15:43:39.351Z,100725.88
2023-05-23T15:46:06.513Z,100707.69
2023-05-23T15:48:33.652Z,100744.19
2023-05-23T15:51:01.086Z,100746.00
2023-05-23T15:53:29.390Z,100743.88
2023-05-23T15:55:57.756Z,100706.22
2023-05-23T15:58:24.820Z,100701.81
2023-05-23T16:00:52.230Z,100742.16
2023-05-23T16:03:19.270Z,100741.00
2023-05-23T16:05:46.453Z,100638.78
2023-05-23T16:08:13.662Z,100742.03
2023-05-23T16:10:40.889Z,100635.94
2023-05-23T16:13:09.202Z,100738.22
2023-05-23T16:15:36.333Z,100719.59
2023-05-23T16:18:04.181Z,100730.63
2023-05-23T16:20:31.518Z,100729.69
2023-05-23T16:22:58.599Z,100737.72
2023-05-23T16:25:25.783Z,100662.63
2023-05-23T16:27:52.936Z,100731.34
2023-05-23T16:30:20.340Z,100722.03
2023-05-23T16:32:47.520Z,100692.94
2023-05-23T16:35:14.712Z,100609.09
2023-05-23T16:37:41.897Z,100687.09
2023-05-23T16:40:09.387Z,100729.03
2023-05-23T16:42:37.221Z,100733.31
2023-05-23T16:45:05.201Z,100737.97
2023-05-23T16:47:32.832Z,100723.41
2023-05-23T16:50:00.071Z,100736.03
2023-05-23T16:52:27.182Z,100709.81
2023-05-23T16:54:55.951Z,100728.28
2023-05-23T16:57:23.340Z,100681.28
2023-05-23T16:59:50.501Z,100708.06
2023-05-23T17:02:17.718Z,100723.59
2023-05-23T17:04:45.129Z,100751.22
2023-05-23T17:07:12.348Z,100709.81
2023-05-23T17:09:39.509Z,100758.38
2023-05-23T17:12:07.506Z,100706.31
2023-05-23T17:14:34.673Z,100684.75
2023-05-23T17:17:03.537Z,100729.81
2023-05-23T17:19:30.808Z,100744.97
2023-05-23T17:22:01.190Z,100749.41
2023-05-23T17:24:28.717Z,100743.59
2023-05-23T17:26:55.902Z,100718.84
2023-05-23T17:29:23.141Z,100702.31
2023-05-23T17:31:50.451Z,100744.88
2023-05-23T17:34:18.347Z,100740.97
2023-05-23T17:36:45.537Z,100735.09
2023-05-23T17:39:12.724Z,100715.66
2023-05-23T17:41:39.944Z,100740.97
2023-05-23T17:44:07.164Z,100737.81
2023-05-23T17:46:34.329Z,100741.31
2023-05-23T17:49:01.580Z,100752.94
2023-05-23T17:51:47.459Z,100739.13
2023-05-23T17:54:14.601Z,100754.41
2023-05-23T17:56:43.394Z,100754.00
2023-05-23T17:59:10.621Z,100725.16
2023-05-23T18:01:37.722Z,100763.44
2023-05-23T18:04:04.914Z,100750.78
2023-05-23T18:06:32.055Z,100749.25
2023-05-23T18:08:59.339Z,100727.03
2023-05-23T18:11:27.531Z,100772.91
2023-05-23T18:13:54.782Z,100777.69
2023-05-23T18:16:22.285Z,100777.06
2023-05-23T18:18:49.474Z,100749.97
2023-05-23T18:21:18.147Z,100780.84
2023-05-23T18:23:45.554Z,100763.66
2023-05-23T18:26:12.749Z,100748.19
2023-05-23T18:28:40.000Z,100768.19
2023-05-23T18:31:07.225Z,100794.34
2023-05-23T18:33:34.543Z,100791.78
2023-05-23T18:36:02.194Z,100804.53
2023-05-23T18:38:29.381Z,100769.06
2023-05-23T18:40:56.544Z,100791.22
2023-05-23T18:43:23.568Z,100803.63
2023-05-23T18:45:50.701Z,100802.63
2023-05-23T18:48:17.932Z,100810.69
2023-05-23T18:50:45.324Z,100747.84
2023-05-23T18:53:12.482Z,100822.50
2023-05-23T18:55:39.597Z,100766.84
2023-05-23T18:58:06.728Z,100819.09
2023-05-23T19:00:33.857Z,100823.13
2023-05-23T19:03:01.341Z,100783.59
2023-05-23T19:05:29.620Z,100841.88
2023-05-23T19:07:56.888Z,100810.78
2023-05-23T19:10:24.043Z,100823.97
2023-05-23T19:12:51.175Z,100854.50
2023-05-23T19:15:19.510Z,100851.50
2023-05-23T19:17:47.535Z,100836.66
2023-05-23T19:20:18.518Z,100845.81
2023-05-23T19:22:51.780Z,100863.78
2023-05-23T19:25:19.371Z,100866.00
2023-05-23T19:27:46.569Z,100867.81
2023-05-23T19:30:13.816Z,100865.03
2023-05-23T19:32:40.994Z,100843.50
2023-05-23T19:35:08.580Z,100871.91
2023-05-23T19:37:35.857Z,100869.81
2023-05-23T19:40:03.521Z,100872.16
2023-05-23T19:42:30.631Z,100863.00
2023-05-23T19:44:57.847Z,100880.22
2023-05-23T19:47:25.375Z,100886.91
2023-05-23T19:49:52.496Z,100826.13
2023-05-23T19:52:19.689Z,100893.06
2023-05-23T19:54:46.923Z,100854.25
2023-05-23T19:57:14.119Z,100828.84
2023-05-23T19:59:42.367Z,100904.88
2023-05-23T20:02:10.191Z,100894.97
2023-05-23T20:04:37.386Z,100893.63
2023-05-23T20:07:04.654Z,100884.47
2023-05-23T20:09:32.167Z,100890.94
2023-05-23T20:12:00.157Z,100905.66
2023-05-23T20:14:29.184Z,100911.09
2023-05-23T20:16:56.532Z,100916.94
2023-05-23T20:19:23.693Z,100919.06
2023-05-23T20:21:50.916Z,100929.88
2023-05-23T20:24:18.070Z,100934.53
2023-05-23T20:26:45.969Z,100865.81
2023-05-23T20:29:13.099Z,100930.28
2023-05-23T20:31:40.376Z,100893.16
2023-05-23T20:34:07.387Z,100917.38
2023-05-23T20:36:34.674Z,100937.25
2023-05-23T20:39:01.774Z,100897.88
2023-05-23T20:41:29.772Z,100918.09
2023-05-23T20:43:56.999Z,100932.94
2023-05-23T20:46:26.225Z,100879.06
2023-05-23T20:48:53.660Z,100943.53
2023-05-23T20:51:22.417Z,100912.94
2023-05-23T20:53:51.535Z,100934.03
2023-05-23T20:56:18.619Z,100940.03
2023-05-23T20:58:46.101Z,100918.28
2023-05-23T21:01:15.228Z,100915.22
2023-05-23T21:03:42.414Z,100926.16
2023-05-23T21:06:09.636Z,100959.94
2023-05-23T21:08:36.848Z,100956.84
2023-05-23T21:11:03.959Z,100952.13
2023-05-23T21:13:31.133Z,100947.66
2023-05-23T21:15:58.322Z,100973.53
2023-05-23T21:18:25.478Z,100949.22
2023-05-23T21:20:52.652Z,100970.59
2023-05-23T21:23:19.817Z,100880.41
2023-05-23T21:25:46.958Z,100943.13
2023-05-23T21:28:14.142Z,100954.13
2023-05-23T21:30:41.853Z,100966.56
2023-05-23T21:33:09.143Z,100907.78
2023-05-23T21:35:37.866Z,100943.84
2023-05-23T21:38:04.985Z,100950.91
2023-05-23T21:40:32.106Z,100940.19
2023-05-23T21:42:59.188Z,100967.81
2023-05-23T21:45:26.342Z,100968.84
2023-05-23T21:47:53.475Z,100966.22
2023-05-23T21:50:20.610Z,100953.63
2023-05-23T21:52:47.689Z,100956.50
2023-05-23T21:55:14.806Z,100940.50
2023-05-23T21:57:41.988Z,100946.22
2023-05-23T22:00:13.116Z,100877.34
2023-05-23T22:02:40.753Z,100946.47
2023-05-23T22:05:08.958Z,100906.81
2023-05-23T22:07:36.108Z,100947.78
2023-05-23T22:10:03.416Z,100957.50
2023-05-23T22:12:30.902Z,100931.28
2023-05-23T22:14:58.282Z,100940.34
2023-05-23T22:17:26.599Z,100937.00
2023-05-23T22:19:55.978Z,100937.50
2023-05-23T22:22:23.053Z,100936.75
2023-05-23T22:24:50.202Z,100936.91
2023-05-23T22:27:17.565Z,100935.06
2023-05-23T22:29:44.715Z,100933.75
2023-05-23T22:32:11.982Z,100797.28
2023-05-23T22:34:39.277Z,100926.16
2023-05-23T22:37:06.445Z,100914.38
2023-05-23T22:39:33.536Z,100920.63
2023-05-23T22:42:00.903Z,100923.56
2023-05-23T22:44:28.013Z,100891.34
2023-05-23T22:46:56.243Z,100925.84
2023-05-23T22:49:25.385Z,100786.44
2023-05-23T22:51:52.561Z,100849.25
2023-05-23T22:54:19.683Z,100919.91
2023-05-23T22:56:46.810Z,100916.78
2023-05-23T22:59:13.886Z,100894.22
2023-05-23T23:01:41.114Z,100880.09
2023-05-23T23:04:08.229Z,100869.59
2023-05-23T23:06:35.740Z,100897.34
2023-05-23T23:09:02.972Z,100907.28
2023-05-23T23:11:30.035Z,100905.34
2023-05-23T23:13:57.351Z,100928.13
2023-05-23T23:16:24.632Z,100874.47
2023-05-23T23:18:52.741Z,100914.75
2023-05-23T23:21:20.037Z,100918.19
2023-05-23T23:23:47.136Z,100881.84
2023-05-23T23:26:14.174Z,100851.56
2023-05-23T23:28:41.231Z,100920.91
2023-05-23T23:31:08.307Z,100926.44
2023-05-23T23:33:35.573Z,100914.16
2023-05-23T23:36:02.851Z,100893.97
2023-05-23T23:38:29.966Z,100910.44
2023-05-23T23:40:57.166Z,100890.03
2023-05-23T23:43:24.296Z,100905.72
2023-05-23T23:45:51.358Z,100909.88
2023-05-23T23:48:18.523Z,100886.63
2023-05-23T23:50:45.745Z,100878.00
2023-05-23T23:53:12.906Z,100909.13
2023-05-23T23:55:40.154Z,100914.34
2023-05-23T23:58:07.267Z,100915.09
